sensor_id;sensor_type;location;lat;lon;timestamp;P1;durP1;ratioP1;P2;durP2;ratioP2
4428;SDS011;2227;47.810;8.810;2023-03-20T04:47:03;818.67;;;745.17;;
4428;SDS011;2227;47.810;8.810;2023-03-20T04:49:30;812.80;;;739.60;;
4428;SDS011;2227;47.810;8.810;2023-03-20T04:51:57;812.85;;;739.63;;
4428;SDS011;2227;47.810;8.810;2023-03-20T04:54:23;818.85;;;745.55;;
4428;SDS011;2227;47.810;8.810;2023-03-20T04:56:50;814.72;;;741.53;;
4428;SDS011;2227;47.810;8.810;2023-03-20T04:59:17;811.08;;;737.88;;
4428;SDS011;2227;47.810;8.810;2023-03-20T05:01:45;804.05;;;731.22;;
4428;SDS011;2227;47.810;8.810;2023-03-20T05:04:12;810.42;;;737.38;;
4428;SDS011;2227;47.810;8.810;2023-03-20T05:06:39;806.35;;;733.35;;
4428;SDS011;2227;47.810;8.810;2023-03-20T05:09:05;815.25;;;741.83;;
4428;SDS011;2227;47.810;8.810;2023-03-20T05:11:32;806.03;;;733.40;;
4428;SDS011;2227;47.810;8.810;2023-03-20T05:13:59;800.55;;;727.85;;
4428;SDS011;2227;47.810;8.810;2023-03-20T05:16:25;805.65;;;732.78;;
4428;SDS011;2227;47.810;8.810;2023-03-20T05:18:52;814.25;;;740.95;;
4428;SDS011;2227;47.810;8.810;2023-03-20T05:21:19;810.88;;;736.90;;
4428;SDS011;2227;47.810;8.810;2023-03-20T05:23:45;802.13;;;729.00;;
4428;SDS011;2227;47.810;8.810;2023-03-20T05:26:12;813.80;;;740.00;;
4428;SDS011;2227;47.810;8.810;2023-03-20T05:28:39;814.35;;;740.13;;
4428;SDS011;2227;47.810;8.810;2023-03-20T05:31:05;803.10;;;729.80;;
4428;SDS011;2227;47.810;8.810;2023-03-20T05:33:33;814.00;;;740.00;;
4428;SDS011;2227;47.810;8.810;2023-03-20T05:36:03;813.30;;;739.53;;
4428;SDS011;2227;47.810;8.810;2023-03-20T05:38:31;809.10;;;735.50;;
4428;SDS011;2227;47.810;8.810;2023-03-20T05:40:58;811.72;;;738.42;;
4428;SDS011;2227;47.810;8.810;2023-03-20T05:43:25;811.22;;;737.72;;
4428;SDS011;2227;47.810;8.810;2023-03-20T05:45:54;818.28;;;744.95;;
4428;SDS011;2227;47.810;8.810;2023-03-20T05:48:22;811.83;;;738.63;;
4428;SDS011;2227;47.810;8.810;2023-03-20T05:50:49;824.90;;;751.38;;
4428;SDS011;2227;47.810;8.810;2023-03-20T05:53:16;806.35;;;733.45;;
4428;SDS011;2227;47.810;8.810;2023-03-20T05:55:42;813.47;;;739.72;;
4428;SDS011;2227;47.810;8.810;2023-03-20T05:58:10;808.95;;;735.45;;
4428;SDS011;2227;47.810;8.810;2023-03-20T06:00:37;813.03;;;739.63;;
4428;SDS011;2227;47.810;8.810;2023-03-20T06:03:05;835.15;;;760.85;;
4428;SDS011;2227;47.810;8.810;2023-03-20T06:05:34;820.70;;;746.53;;
4428;SDS011;2227;47.810;8.810;2023-03-20T06:08:02;817.83;;;743.83;;
4428;SDS011;2227;47.810;8.810;2023-03-20T06:10:29;817.50;;;743.45;;
4428;SDS011;2227;47.810;8.810;2023-03-20T06:12:56;824.95;;;750.83;;
4428;SDS011;2227;47.810;8.810;2023-03-20T06:15:29;831.67;;;756.47;;
4428;SDS011;2227;47.810;8.810;2023-03-20T06:17:55;818.42;;;743.55;;
4428;SDS011;2227;47.810;8.810;2023-03-20T06:20:22;820.42;;;745.58;;
4428;SDS011;2227;47.810;8.810;2023-03-20T06:22:49;818.30;;;743.50;;
4428;SDS011;2227;47.810;8.810;2023-03-20T06:25:16;825.70;;;750.85;;
4428;SDS011;2227;47.810;8.810;2023-03-20T06:27:44;823.92;;;749.00;;
4428;SDS011;2227;47.810;8.810;2023-03-20T06:30:13;821.40;;;746.40;;
4428;SDS011;2227;47.810;8.810;2023-03-20T06:32:41;822.17;;;746.87;;
4428;SDS011;2227;47.810;8.810;2023-03-20T06:35:08;841.53;;;765.90;;
4428;SDS011;2227;47.810;8.810;2023-03-20T06:37:36;844.28;;;768.38;;
4428;SDS011;2227;47.810;8.810;2023-03-20T06:40:03;851.38;;;775.58;;
4428;SDS011;2227;47.810;8.810;2023-03-20T06:42:30;851.50;;;776.20;;
4428;SDS011;2227;47.810;8.810;2023-03-20T06:44:57;845.55;;;770.08;;
4428;SDS011;2227;47.810;8.810;2023-03-20T06:47:23;844.17;;;769.17;;
4428;SDS011;2227;47.810;8.810;2023-03-20T06:49:50;846.35;;;771.00;;
4428;SDS011;2227;47.810;8.810;2023-03-20T06:52:18;845.10;;;770.20;;
4428;SDS011;2227;47.810;8.810;2023-03-20T06:54:47;843.90;;;769.65;;
4428;SDS011;2227;47.810;8.810;2023-03-20T06:57:16;848.42;;;774.13;;
4428;SDS011;2227;47.810;8.810;2023-03-20T06:59:43;847.83;;;772.83;;
4428;SDS011;2227;47.810;8.810;2023-03-20T07:02:10;844.95;;;770.67;;
4428;SDS011;2227;47.810;8.810;2023-03-20T07:04:37;855.85;;;781.70;;
4428;SDS011;2227;47.810;8.810;2023-03-20T07:07:03;844.67;;;771.28;;
4428;SDS011;2227;47.810;8.810;2023-03-20T07:09:30;843.95;;;770.58;;
4428;SDS011;2227;47.810;8.810;2023-03-20T07:11:58;843.83;;;770.22;;
4428;SDS011;2227;47.810;8.810;2023-03-20T07:14:25;844.87;;;771.67;;
4428;SDS011;2227;47.810;8.810;2023-03-20T07:16:51;853.60;;;780.20;;
4428;SDS011;2227;47.810;8.810;2023-03-20T07:19:18;855.08;;;781.50;;
4428;SDS011;2227;47.810;8.810;2023-03-20T07:21:45;847.35;;;773.75;;
4428;SDS011;2227;47.810;8.810;2023-03-20T07:24:12;843.47;;;769.90;;
4428;SDS011;2227;47.810;8.810;2023-03-20T07:26:39;852.50;;;778.80;;
4428;SDS011;2227;47.810;8.810;2023-03-20T07:29:06;857.53;;;783.73;;
4428;SDS011;2227;47.810;8.810;2023-03-20T07:31:33;863.20;;;789.60;;
4428;SDS011;2227;47.810;8.810;2023-03-20T07:34:00;864.80;;;790.88;;
4428;SDS011;2227;47.810;8.810;2023-03-20T07:36:26;857.53;;;783.90;;
4428;SDS011;2227;47.810;8.810;2023-03-20T07:38:53;856.65;;;782.60;;
4428;SDS011;2227;47.810;8.810;2023-03-20T07:41:20;866.25;;;792.03;;
4428;SDS011;2227;47.810;8.810;2023-03-20T07:43:47;871.95;;;797.63;;
4428;SDS011;2227;47.810;8.810;2023-03-20T07:46:13;867.63;;;793.72;;
4428;SDS011;2227;47.810;8.810;2023-03-20T07:48:40;870.75;;;797.35;;
4428;SDS011;2227;47.810;8.810;2023-03-20T07:51:07;876.83;;;803.35;;
4428;SDS011;2227;47.810;8.810;2023-03-20T07:53:33;882.58;;;809.17;;
4428;SDS011;2227;47.810;8.810;2023-03-20T07:56:00;880.47;;;806.75;;
4428;SDS011;2227;47.810;8.810;2023-03-20T07:58:27;888.00;;;814.25;;
4428;SDS011;2227;47.810;8.810;2023-03-20T08:00:55;888.25;;;814.33;;
4428;SDS011;2227;47.810;8.810;2023-03-20T08:03:23;894.72;;;821.22;;
4428;SDS011;2227;47.810;8.810;2023-03-20T08:05:50;901.50;;;827.92;;
4428;SDS011;2227;47.810;8.810;2023-03-20T08:08:17;901.72;;;827.63;;
4428;SDS011;2227;47.810;8.810;2023-03-20T08:10:43;901.97;;;828.47;;
4428;SDS011;2227;47.810;8.810;2023-03-20T08:13:10;907.90;;;834.40;;
4428;SDS011;2227;47.810;8.810;2023-03-20T08:15:37;904.17;;;830.45;;
4428;SDS011;2227;47.810;8.810;2023-03-20T08:18:04;912.25;;;838.55;;
4428;SDS011;2227;47.810;8.810;2023-03-20T08:20:31;920.42;;;846.88;;
4428;SDS011;2227;47.810;8.810;2023-03-20T08:22:58;920.47;;;846.57;;
4428;SDS011;2227;47.810;8.810;2023-03-20T08:25:25;917.78;;;843.78;;
4428;SDS011;2227;47.810;8.810;2023-03-20T08:27:51;928.08;;;854.30;;
4428;SDS011;2227;47.810;8.810;2023-03-20T08:30:18;937.60;;;862.80;;
4428;SDS011;2227;47.810;8.810;2023-03-20T08:32:45;947.78;;;873.28;;
4428;SDS011;2227;47.810;8.810;2023-03-20T08:35:12;963.63;;;888.85;;
4428;SDS011;2227;47.810;8.810;2023-03-20T08:37:57;957.90;;;883.60;;
4428;SDS011;2227;47.810;8.810;2023-03-20T08:40:24;964.55;;;889.97;;
4428;SDS011;2227;47.810;8.810;2023-03-20T08:42:50;959.05;;;884.85;;
4428;SDS011;2227;47.810;8.810;2023-03-20T08:45:17;963.47;;;888.95;;
4428;SDS011;2227;47.810;8.810;2023-03-20T08:47:47;968.57;;;894.13;;
4428;SDS011;2227;47.810;8.810;2023-03-20T08:50:14;971.28;;;896.97;;
4428;SDS011;2227;47.810;8.810;2023-03-20T08:52:41;967.67;;;893.38;;
4428;SDS011;2227;47.810;8.810;2023-03-20T08:55:12;979.70;;;905.35;;
4428;SDS011;2227;47.810;8.810;2023-03-20T08:57:41;995.38;;;920.88;;
4428;SDS011;2227;47.810;8.810;2023-03-20T09:00:09;988.90;;;915.22;;
4428;SDS011;2227;47.810;8.810;2023-03-20T09:02:38;1000.88;;;926.50;;
4428;SDS011;2227;47.810;8.810;2023-03-20T09:05:05;1009.42;;;935.35;;
4428;SDS011;2227;47.810;8.810;2023-03-20T09:07:33;1001.03;;;927.45;;
4428;SDS011;2227;47.810;8.810;2023-03-20T09:09:59;1009.20;;;935.63;;
4428;SDS011;2227;47.810;8.810;2023-03-20T09:12:26;1041.22;;;966.42;;
4428;SDS011;2227;47.810;8.810;2023-03-20T09:14:53;1048.45;;;974.25;;
4428;SDS011;2227;47.810;8.810;2023-03-20T09:17:20;1061.40;;;987.03;;
4428;SDS011;2227;47.810;8.810;2023-03-20T09:19:46;1064.53;;;990.00;;
4428;SDS011;2227;47.810;8.810;2023-03-20T09:22:13;1064.18;;;989.97;;
4428;SDS011;2227;47.810;8.810;2023-03-20T09:24:43;1057.35;;;983.17;;
4428;SDS011;2227;47.810;8.810;2023-03-20T09:27:10;1052.88;;;979.25;;
4428;SDS011;2227;47.810;8.810;2023-03-20T09:29:39;1048.35;;;974.65;;
4428;SDS011;2227;47.810;8.810;2023-03-20T09:32:06;1035.80;;;962.38;;
4428;SDS011;2227;47.810;8.810;2023-03-20T09:34:37;1035.35;;;961.70;;
4428;SDS011;2227;47.810;8.810;2023-03-20T09:37:04;1030.90;;;957.17;;
4428;SDS011;2227;47.810;8.810;2023-03-20T09:39:31;1024.18;;;950.67;;
4428;SDS011;2227;47.810;8.810;2023-03-20T09:42:00;1012.38;;;939.08;;
4428;SDS011;2227;47.810;8.810;2023-03-20T09:53:03;1002.63;;;929.33;;
4428;SDS011;2227;47.810;8.810;2023-03-20T09:55:42;1000.28;;;926.88;;
4428;SDS011;2227;47.810;8.810;2023-03-20T09:58:14;1011.53;;;937.53;;
4428;SDS011;2227;47.810;8.810;2023-03-20T10:00:50;1002.63;;;929.00;;
4428;SDS011;2227;47.810;8.810;2023-03-20T10:03:21;1009.78;;;936.05;;
4428;SDS011;2227;47.810;8.810;2023-03-20T10:06:14;1002.25;;;929.05;;
4428;SDS011;2227;47.810;8.810;2023-03-20T10:08:42;1003.42;;;930.00;;
4428;SDS011;2227;47.810;8.810;2023-03-20T10:22:33;997.22;;;923.42;;
4428;SDS011;2227;47.810;8.810;2023-03-20T10:25:07;999.95;;;926.05;;
4428;SDS011;2227;47.810;8.810;2023-03-20T10:30:30;1005.55;;;932.33;;
4428;SDS011;2227;47.810;8.810;2023-03-20T10:38:46;1018.97;;;944.28;;
4428;SDS011;2227;47.810;8.810;2023-03-20T10:41:20;1014.05;;;939.70;;
4428;SDS011;2227;47.810;8.810;2023-03-20T10:43:50;1001.55;;;928.15;;
4428;SDS011;2227;47.810;8.810;2023-03-20T10:46:23;1012.60;;;939.40;;
4428;SDS011;2227;47.810;8.810;2023-03-20T10:49:01;1005.72;;;932.50;;
4428;SDS011;2227;47.810;8.810;2023-03-20T10:56:54;1027.10;;;953.67;;
4428;SDS011;2227;47.810;8.810;2023-03-20T10:59:26;1037.65;;;963.97;;
4428;SDS011;2227;47.810;8.810;2023-03-20T11:01:57;1042.85;;;969.42;;
4428;SDS011;2227;47.810;8.810;2023-03-20T11:04:24;1049.82;;;975.67;;
4428;SDS011;2227;47.810;8.810;2023-03-20T11:09:26;1049.72;;;975.17;;
4428;SDS011;2227;47.810;8.810;2023-03-20T11:11:58;1049.10;;;974.00;;
4428;SDS011;2227;47.810;8.810;2023-03-20T11:14:34;1037.75;;;963.08;;
4428;SDS011;2227;47.810;8.810;2023-03-20T11:17:05;1035.93;;;960.70;;
4428;SDS011;2227;47.810;8.810;2023-03-20T11:19:33;1015.47;;;939.88;;
4428;SDS011;2227;47.810;8.810;2023-03-20T11:22:09;1002.30;;;927.53;;
4428;SDS011;2227;47.810;8.810;2023-03-20T11:24:59;1003.22;;;929.08;;
4428;SDS011;2227;47.810;8.810;2023-03-20T11:27:28;1005.13;;;931.35;;
4428;SDS011;2227;47.810;8.810;2023-03-20T11:30:01;1004.53;;;931.03;;
4428;SDS011;2227;47.810;8.810;2023-03-20T11:32:49;1008.05;;;934.80;;
4428;SDS011;2227;47.810;8.810;2023-03-20T11:35:26;997.33;;;924.40;;
4428;SDS011;2227;47.810;8.810;2023-03-20T11:40:56;1008.70;;;934.30;;
4428;SDS011;2227;47.810;8.810;2023-03-20T11:43:24;1006.80;;;933.05;;
4428;SDS011;2227;47.810;8.810;2023-03-20T11:45:56;1003.28;;;930.08;;
4428;SDS011;2227;47.810;8.810;2023-03-20T11:48:26;1010.45;;;936.95;;
4428;SDS011;2227;47.810;8.810;2023-03-20T11:53:33;999.70;;;926.63;;
4428;SDS011;2227;47.810;8.810;2023-03-20T11:56:11;1002.20;;;929.15;;
4428;SDS011;2227;47.810;8.810;2023-03-20T11:59:00;1002.03;;;928.93;;
4428;SDS011;2227;47.810;8.810;2023-03-20T12:01:28;995.67;;;923.33;;
4428;SDS011;2227;47.810;8.810;2023-03-20T12:04:13;1000.13;;;926.83;;
4428;SDS011;2227;47.810;8.810;2023-03-20T12:09:26;1002.50;;;928.72;;
4428;SDS011;2227;47.810;8.810;2023-03-20T12:12:01;988.95;;;916.22;;
4428;SDS011;2227;47.810;8.810;2023-03-20T12:19:58;1003.38;;;930.60;;
4428;SDS011;2227;47.810;8.810;2023-03-20T12:22:48;1007.88;;;935.33;;
4428;SDS011;2227;47.810;8.810;2023-03-20T12:25:41;1008.35;;;935.28;;
4428;SDS011;2227;47.810;8.810;2023-03-20T12:28:30;1003.85;;;930.85;;
4428;SDS011;2227;47.810;8.810;2023-03-20T12:34:04;1008.08;;;935.10;;
4428;SDS011;2227;47.810;8.810;2023-03-20T12:36:39;1005.28;;;932.03;;
4428;SDS011;2227;47.810;8.810;2023-03-20T12:52:50;1005.67;;;932.28;;
4428;SDS011;2227;47.810;8.810;2023-03-20T12:55:42;1004.10;;;930.67;;
4428;SDS011;2227;47.810;8.810;2023-03-20T13:06:53;996.92;;;922.95;;
4428;SDS011;2227;47.810;8.810;2023-03-20T13:09:31;994.42;;;920.53;;
4428;SDS011;2227;47.810;8.810;2023-03-20T13:18:08;1002.97;;;929.78;;
4428;SDS011;2227;47.810;8.810;2023-03-20T13:20:55;1023.05;;;948.40;;
4428;SDS011;2227;47.810;8.810;2023-03-20T13:23:29;1016.92;;;942.42;;
4428;SDS011;2227;47.810;8.810;2023-03-20T13:28:51;1003.22;;;928.85;;
4428;SDS011;2227;47.810;8.810;2023-03-20T13:39:58;1000.90;;;925.53;;
4428;SDS011;2227;47.810;8.810;2023-03-20T13:48:04;991.35;;;917.50;;
4428;SDS011;2227;47.810;8.810;2023-03-20T13:56:28;989.40;;;914.30;;
4428;SDS011;2227;47.810;8.810;2023-03-20T14:04:37;981.17;;;906.92;;
4428;SDS011;2227;47.810;8.810;2023-03-20T14:13:00;980.78;;;906.58;;
4428;SDS011;2227;47.810;8.810;2023-03-20T14:15:31;981.97;;;908.65;;
4428;SDS011;2227;47.810;8.810;2023-03-20T14:18:04;982.57;;;909.17;;
4428;SDS011;2227;47.810;8.810;2023-03-20T14:20:39;988.20;;;914.03;;
4428;SDS011;2227;47.810;8.810;2023-03-20T14:23:15;992.53;;;917.95;;
4428;SDS011;2227;47.810;8.810;2023-03-20T14:25:43;983.43;;;908.53;;
4428;SDS011;2227;47.810;8.810;2023-03-20T14:30:43;986.83;;;911.30;;
4428;SDS011;2227;47.810;8.810;2023-03-20T14:35:42;987.95;;;912.78;;
4428;SDS011;2227;47.810;8.810;2023-03-20T14:38:18;994.28;;;919.17;;
4428;SDS011;2227;47.810;8.810;2023-03-20T14:40:48;998.30;;;923.47;;
4428;SDS011;2227;47.810;8.810;2023-03-20T14:57:45;1019.17;;;945.67;;
4428;SDS011;2227;47.810;8.810;2023-03-20T15:00:23;1019.38;;;945.97;;
4428;SDS011;2227;47.810;8.810;2023-03-20T15:05:40;1018.85;;;944.55;;
4428;SDS011;2227;47.810;8.810;2023-03-20T15:11:03;1008.03;;;934.03;;
4428;SDS011;2227;47.810;8.810;2023-03-20T15:13:34;1006.50;;;932.53;;
4428;SDS011;2227;47.810;8.810;2023-03-20T15:16:06;1004.30;;;929.83;;
4428;SDS011;2227;47.810;8.810;2023-03-20T15:18:39;999.15;;;924.00;;
4428;SDS011;2227;47.810;8.810;2023-03-20T15:21:12;993.70;;;919.50;;
4428;SDS011;2227;47.810;8.810;2023-03-20T15:23:44;992.03;;;918.13;;
4428;SDS011;2227;47.810;8.810;2023-03-20T15:26:13;1000.20;;;926.10;;
4428;SDS011;2227;47.810;8.810;2023-03-20T15:28:41;999.25;;;925.38;;
4428;SDS011;2227;47.810;8.810;2023-03-20T15:31:23;997.70;;;923.55;;
4428;SDS011;2227;47.810;8.810;2023-03-20T15:33:52;1000.45;;;925.25;;
4428;SDS011;2227;47.810;8.810;2023-03-20T15:36:21;993.22;;;918.63;;
4428;SDS011;2227;47.810;8.810;2023-03-20T15:38:51;986.35;;;911.92;;
4428;SDS011;2227;47.810;8.810;2023-03-20T15:41:25;990.83;;;915.67;;
4428;SDS011;2227;47.810;8.810;2023-03-20T15:43:54;981.92;;;906.97;;
4428;SDS011;2227;47.810;8.810;2023-03-20T15:46:35;981.97;;;907.67;;
4428;SDS011;2227;47.810;8.810;2023-03-20T15:49:03;984.28;;;908.95;;
4428;SDS011;2227;47.810;8.810;2023-03-20T15:51:30;980.20;;;905.30;;
4428;SDS011;2227;47.810;8.810;2023-03-20T15:53:59;974.25;;;899.47;;
4428;SDS011;2227;47.810;8.810;2023-03-20T15:56:32;978.38;;;903.67;;
4428;SDS011;2227;47.810;8.810;2023-03-20T15:59:00;979.22;;;905.03;;
4428;SDS011;2227;47.810;8.810;2023-03-20T16:01:28;972.88;;;898.58;;
4428;SDS011;2227;47.810;8.810;2023-03-20T16:03:57;972.53;;;897.97;;
4428;SDS011;2227;47.810;8.810;2023-03-20T16:06:25;974.67;;;900.38;;
4428;SDS011;2227;47.810;8.810;2023-03-20T16:08:59;977.72;;;903.47;;
4428;SDS011;2227;47.810;8.810;2023-03-20T16:11:39;980.08;;;905.45;;
4428;SDS011;2227;47.810;8.810;2023-03-20T16:14:09;990.23;;;915.63;;
4428;SDS011;2227;47.810;8.810;2023-03-20T16:16:40;992.17;;;917.75;;
4428;SDS011;2227;47.810;8.810;2023-03-20T16:19:09;1003.05;;;928.72;;
4428;SDS011;2227;47.810;8.810;2023-03-20T16:21:38;1002.85;;;928.75;;
4428;SDS011;2227;47.810;8.810;2023-03-20T16:24:09;1005.25;;;930.13;;
4428;SDS011;2227;47.810;8.810;2023-03-20T16:26:44;996.63;;;922.33;;
4428;SDS011;2227;47.810;8.810;2023-03-20T16:29:13;1002.40;;;927.75;;
4428;SDS011;2227;47.810;8.810;2023-03-20T16:32:03;999.63;;;924.72;;
4428;SDS011;2227;47.810;8.810;2023-03-20T16:34:34;992.30;;;917.97;;
4428;SDS011;2227;47.810;8.810;2023-03-20T16:37:06;992.85;;;918.75;;
4428;SDS011;2227;47.810;8.810;2023-03-20T16:39:46;988.58;;;914.47;;
4428;SDS011;2227;47.810;8.810;2023-03-20T16:42:22;991.20;;;917.10;;
4428;SDS011;2227;47.810;8.810;2023-03-20T16:44:54;992.67;;;918.35;;
4428;SDS011;2227;47.810;8.810;2023-03-20T16:47:22;988.40;;;914.10;;
4428;SDS011;2227;47.810;8.810;2023-03-20T16:50:02;985.42;;;911.25;;
4428;SDS011;2227;47.810;8.810;2023-03-20T16:52:36;986.15;;;912.10;;
4428;SDS011;2227;47.810;8.810;2023-03-20T16:55:06;976.00;;;902.25;;
4428;SDS011;2227;47.810;8.810;2023-03-20T16:57:39;979.90;;;905.65;;
4428;SDS011;2227;47.810;8.810;2023-03-20T17:00:26;979.60;;;905.00;;
4428;SDS011;2227;47.810;8.810;2023-03-20T17:05:44;976.20;;;901.80;;
4428;SDS011;2227;47.810;8.810;2023-03-20T17:08:24;972.58;;;897.88;;
4428;SDS011;2227;47.810;8.810;2023-03-20T17:10:56;964.10;;;888.80;;
4428;SDS011;2227;47.810;8.810;2023-03-20T17:13:24;964.47;;;889.58;;
4428;SDS011;2227;47.810;8.810;2023-03-20T17:15:51;962.70;;;887.53;;
4428;SDS011;2227;47.810;8.810;2023-03-20T17:18:17;946.08;;;870.92;;
4428;SDS011;2227;47.810;8.810;2023-03-20T17:20:44;931.37;;;856.77;;
4428;SDS011;2227;47.810;8.810;2023-03-20T17:23:15;932.63;;;857.63;;
4428;SDS011;2227;47.810;8.810;2023-03-20T17:25:44;924.75;;;849.85;;
4428;SDS011;2227;47.810;8.810;2023-03-20T17:28:19;923.17;;;848.08;;
4428;SDS011;2227;47.810;8.810;2023-03-20T17:30:48;911.65;;;836.65;;
4428;SDS011;2227;47.810;8.810;2023-03-20T17:33:17;915.00;;;839.67;;
4428;SDS011;2227;47.810;8.810;2023-03-20T17:35:46;913.75;;;838.50;;
4428;SDS011;2227;47.810;8.810;2023-03-20T17:38:17;918.53;;;842.72;;
4428;SDS011;2227;47.810;8.810;2023-03-20T17:40:47;903.63;;;828.47;;
4428;SDS011;2227;47.810;8.810;2023-03-20T17:43:14;907.90;;;832.67;;
4428;SDS011;2227;47.810;8.810;2023-03-20T17:45:42;898.42;;;823.10;;
4428;SDS011;2227;47.810;8.810;2023-03-20T17:48:11;904.85;;;829.55;;
4428;SDS011;2227;47.810;8.810;2023-03-20T17:50:41;898.00;;;822.60;;
4428;SDS011;2227;47.810;8.810;2023-03-20T17:53:14;889.28;;;814.05;;
4428;SDS011;2227;47.810;8.810;2023-03-20T17:55:43;886.53;;;811.13;;
4428;SDS011;2227;47.810;8.810;2023-03-20T17:58:15;884.58;;;809.28;;
4428;SDS011;2227;47.810;8.810;2023-03-20T18:00:43;888.70;;;813.20;;
4428;SDS011;2227;47.810;8.810;2023-03-20T18:03:10;883.65;;;808.45;;
4428;SDS011;2227;47.810;8.810;2023-03-20T18:05:37;878.20;;;802.55;;
4428;SDS011;2227;47.810;8.810;2023-03-20T18:08:05;883.67;;;807.92;;
4428;SDS011;2227;47.810;8.810;2023-03-20T18:10:37;878.75;;;802.92;;
4428;SDS011;2227;47.810;8.810;2023-03-20T18:13:04;881.65;;;805.85;;
4428;SDS011;2227;47.810;8.810;2023-03-20T18:15:31;887.38;;;811.33;;
4428;SDS011;2227;47.810;8.810;2023-03-20T18:17:58;879.63;;;803.85;;
4428;SDS011;2227;47.810;8.810;2023-03-20T18:20:29;888.40;;;812.30;;
4428;SDS011;2227;47.810;8.810;2023-03-20T18:22:57;888.50;;;812.58;;
4428;SDS011;2227;47.810;8.810;2023-03-20T18:25:24;879.03;;;803.38;;
4428;SDS011;2227;47.810;8.810;2023-03-20T18:27:51;890.15;;;814.10;;
4428;SDS011;2227;47.810;8.810;2023-03-20T18:30:21;895.60;;;819.60;;
4428;SDS011;2227;47.810;8.810;2023-03-20T18:32:50;893.40;;;818.22;;
4428;SDS011;2227;47.810;8.810;2023-03-20T18:35:17;900.67;;;825.67;;
4428;SDS011;2227;47.810;8.810;2023-03-20T18:37:44;905.92;;;830.05;;
4428;SDS011;2227;47.810;8.810;2023-03-20T18:40:19;905.83;;;830.23;;
4428;SDS011;2227;47.810;8.810;2023-03-20T18:42:52;902.17;;;826.83;;
4428;SDS011;2227;47.810;8.810;2023-03-20T18:45:20;896.72;;;821.22;;
4428;SDS011;2227;47.810;8.810;2023-03-20T18:47:47;910.38;;;834.65;;
4428;SDS011;2227;47.810;8.810;2023-03-20T18:50:19;908.13;;;832.40;;
4428;SDS011;2227;47.810;8.810;2023-03-20T18:52:51;892.67;;;817.78;;
4428;SDS011;2227;47.810;8.810;2023-03-20T18:55:19;900.97;;;825.85;;
4428;SDS011;2227;47.810;8.810;2023-03-20T18:57:46;908.80;;;833.05;;
4428;SDS011;2227;47.810;8.810;2023-03-20T19:00:20;894.13;;;819.38;;
4428;SDS011;2227;47.810;8.810;2023-03-20T19:02:50;905.08;;;830.08;;
4428;SDS011;2227;47.810;8.810;2023-03-20T19:05:20;907.45;;;832.65;;
4428;SDS011;2227;47.810;8.810;2023-03-20T19:07:48;900.42;;;825.85;;
4428;SDS011;2227;47.810;8.810;2023-03-20T19:12:48;895.60;;;821.22;;
4428;SDS011;2227;47.810;8.810;2023-03-20T19:15:15;901.45;;;826.55;;
4428;SDS011;2227;47.810;8.810;2023-03-20T19:17:42;906.30;;;831.58;;
4428;SDS011;2227;47.810;8.810;2023-03-20T19:20:14;900.58;;;825.70;;
4428;SDS011;2227;47.810;8.810;2023-03-20T19:22:59;914.00;;;833.72;;
4428;SDS011;2227;47.810;8.810;2023-03-20T19:25:27;903.15;;;828.10;;
4428;SDS011;2227;47.810;8.810;2023-03-20T19:27:54;896.22;;;821.63;;
4428;SDS011;2227;47.810;8.810;2023-03-20T19:30:22;908.43;;;833.43;;
4428;SDS011;2227;47.810;8.810;2023-03-20T19:32:57;897.95;;;823.35;;
4428;SDS011;2227;47.810;8.810;2023-03-20T19:35:26;899.95;;;825.30;;
4428;SDS011;2227;47.810;8.810;2023-03-20T19:38:14;902.50;;;827.72;;
4428;SDS011;2227;47.810;8.810;2023-03-20T19:40:49;893.10;;;818.10;;
4428;SDS011;2227;47.810;8.810;2023-03-20T19:43:21;900.60;;;825.55;;
4428;SDS011;2227;47.810;8.810;2023-03-20T19:45:48;896.00;;;820.88;;
4428;SDS011;2227;47.810;8.810;2023-03-20T19:48:23;900.42;;;824.83;;
4428;SDS011;2227;47.810;8.810;2023-03-20T19:50:52;902.63;;;827.13;;
4428;SDS011;2227;47.810;8.810;2023-03-20T19:53:20;908.08;;;832.38;;
4428;SDS011;2227;47.810;8.810;2023-03-20T19:55:50;898.15;;;823.08;;
4428;SDS011;2227;47.810;8.810;2023-03-20T19:58:18;902.08;;;826.78;;
4428;SDS011;2227;47.810;8.810;2023-03-20T20:00:45;905.33;;;826.22;;
4428;SDS011;2227;47.810;8.810;2023-03-20T20:03:25;896.75;;;820.55;;
4428;SDS011;2227;47.810;8.810;2023-03-20T20:05:52;907.15;;;832.75;;
4428;SDS011;2227;47.810;8.810;2023-03-20T20:08:19;899.53;;;825.43;;
4428;SDS011;2227;47.810;8.810;2023-03-20T20:11:06;901.40;;;827.30;;
4428;SDS011;2227;47.810;8.810;2023-03-20T20:13:36;903.50;;;828.90;;
4428;SDS011;2227;47.810;8.810;2023-03-20T20:16:24;906.33;;;831.53;;
4428;SDS011;2227;47.810;8.810;2023-03-20T20:18:50;892.53;;;817.60;;
4428;SDS011;2227;47.810;8.810;2023-03-20T20:21:17;899.50;;;824.53;;
4428;SDS011;2227;47.810;8.810;2023-03-20T20:24:03;909.42;;;833.92;;
4428;SDS011;2227;47.810;8.810;2023-03-20T20:26:31;895.75;;;820.58;;
4428;SDS011;2227;47.810;8.810;2023-03-20T20:29:05;900.17;;;825.13;;
4428;SDS011;2227;47.810;8.810;2023-03-20T20:31:32;901.45;;;826.05;;
4428;SDS011;2227;47.810;8.810;2023-03-20T20:33:59;894.90;;;819.40;;
4428;SDS011;2227;47.810;8.810;2023-03-20T20:36:45;907.40;;;832.00;;
4428;SDS011;2227;47.810;8.810;2023-03-20T20:39:32;904.63;;;829.22;;
4428;SDS011;2227;47.810;8.810;2023-03-20T20:41:59;900.13;;;824.75;;
4428;SDS011;2227;47.810;8.810;2023-03-20T20:44:26;895.67;;;820.53;;
4428;SDS011;2227;47.810;8.810;2023-03-20T20:46:53;897.45;;;821.90;;
4428;SDS011;2227;47.810;8.810;2023-03-20T20:49:20;898.13;;;822.42;;
4428;SDS011;2227;47.810;8.810;2023-03-20T20:51:47;898.70;;;823.13;;
4428;SDS011;2227;47.810;8.810;2023-03-20T20:54:14;894.87;;;819.43;;
4428;SDS011;2227;47.810;8.810;2023-03-20T20:56:41;897.33;;;821.42;;
4428;SDS011;2227;47.810;8.810;2023-03-20T20:59:08;888.53;;;812.67;;
4428;SDS011;2227;47.810;8.810;2023-03-20T21:01:35;893.38;;;817.47;;
4428;SDS011;2227;47.810;8.810;2023-03-20T21:04:01;887.55;;;811.85;;
4428;SDS011;2227;47.810;8.810;2023-03-20T21:06:28;898.28;;;822.20;;
4428;SDS011;2227;47.810;8.810;2023-03-20T21:09:15;896.15;;;820.25;;
4428;SDS011;2227;47.810;8.810;2023-03-20T21:11:41;906.53;;;829.78;;
4428;SDS011;2227;47.810;8.810;2023-03-20T21:14:08;892.33;;;816.50;;
4428;SDS011;2227;47.810;8.810;2023-03-20T21:16:35;894.95;;;819.35;;
4428;SDS011;2227;47.810;8.810;2023-03-20T21:19:02;898.08;;;823.13;;
4428;SDS011;2227;47.810;8.810;2023-03-20T21:21:28;899.63;;;824.28;;
4428;SDS011;2227;47.810;8.810;2023-03-20T21:23:55;889.53;;;814.63;;
4428;SDS011;2227;47.810;8.810;2023-03-20T21:26:22;888.90;;;814.13;;
4428;SDS011;2227;47.810;8.810;2023-03-20T21:28:49;896.40;;;821.42;;
4428;SDS011;2227;47.810;8.810;2023-03-20T21:31:23;888.70;;;814.13;;
4428;SDS011;2227;47.810;8.810;2023-03-20T21:33:56;891.67;;;816.47;;
4428;SDS011;2227;47.810;8.810;2023-03-20T21:36:23;898.20;;;822.75;;
4428;SDS011;2227;47.810;8.810;2023-03-20T21:38:50;888.22;;;813.55;;
4428;SDS011;2227;47.810;8.810;2023-03-20T21:41:33;896.22;;;821.42;;
4428;SDS011;2227;47.810;8.810;2023-03-20T21:44:00;891.30;;;816.93;;
4428;SDS011;2227;47.810;8.810;2023-03-20T21:46:29;887.63;;;813.45;;
4428;SDS011;2227;47.810;8.810;2023-03-20T21:49:15;889.08;;;814.67;;